createdAt,value
2022-09-12T00:00:00.148Z,16.6
2022-09-12T00:05:00.362Z,16.5
2022-09-12T00:10:00.155Z,16.5
2022-09-12T00:15:00.176Z,16.5
2022-09-12T00:20:00.205Z,16.5
2022-09-12T00:25:00.190Z,16.4
2022-09-12T00:30:00.177Z,16.4
2022-09-12T00:35:00.207Z,16.3
2022-09-12T00:40:00.299Z,16.4
2022-09-12T00:45:00.198Z,16.4
2022-09-12T00:50:00.271Z,16.3
2022-09-12T00:55:00.198Z,16.3
2022-09-12T01:00:00.603Z,16.4
2022-09-12T01:05:00.169Z,16.4
2022-09-12T01:10:00.190Z,16.4
2022-09-12T01:15:00.195Z,16.3
2022-09-12T01:20:00.195Z,16.2
2022-09-12T01:25:00.166Z,16.2
2022-09-12T01:30:00.174Z,16.1
2022-09-12T01:35:00.176Z,16.1
2022-09-12T01:40:00.292Z,16.1
2022-09-12T01:45:00.204Z,16.1
2022-09-12T01:50:00.169Z,16.1
2022-09-12T01:55:00.185Z,16.0
2022-09-12T02:00:00.178Z,16.1
2022-09-12T02:05:00.175Z,16.1
2022-09-12T02:10:00.179Z,16.1
2022-09-12T02:15:00.178Z,16.0
2022-09-12T02:20:00.175Z,15.9
2022-09-12T02:25:00.164Z,15.9
2022-09-12T02:30:00.183Z,15.9
2022-09-12T02:35:00.180Z,15.8
2022-09-12T02:40:00.301Z,15.7
2022-09-12T02:45:00.180Z,15.7
2022-09-12T02:50:00.186Z,15.6
2022-09-12T02:55:00.177Z,15.6
2022-09-12T03:00:00.204Z,15.7
2022-09-12T03:05:00.164Z,15.7
2022-09-12T03:10:00.156Z,15.7
2022-09-12T03:15:00.184Z,15.6
2022-09-12T03:20:00.182Z,15.6
2022-09-12T03:25:00.171Z,15.6
2022-09-12T03:30:00.206Z,15.6
2022-09-12T03:35:00.181Z,15.6
2022-09-12T03:40:00.381Z,15.7
2022-09-12T03:45:00.156Z,15.7
2022-09-12T03:50:00.202Z,15.7
2022-09-12T03:55:00.172Z,15.6
2022-09-12T04:00:00.339Z,15.6
2022-09-12T04:05:00.190Z,15.5
2022-09-12T04:10:00.200Z,15.4
2022-09-12T04:15:00.340Z,15.4
2022-09-12T04:20:00.212Z,15.4
2022-09-12T04:25:00.153Z,15.3
2022-09-12T04:30:00.182Z,15.3
2022-09-12T04:35:00.194Z,15.2
2022-09-12T04:40:00.321Z,15.2
2022-09-12T04:45:00.305Z,15.1
2022-09-12T04:50:00.162Z,15.1
2022-09-12T04:55:00.163Z,15.1
2022-09-12T05:00:02.841Z,15.1
2022-09-12T05:05:00.179Z,15.1
2022-09-12T05:10:00.175Z,15.1
2022-09-12T05:15:00.198Z,15.1
2022-09-12T05:20:00.180Z,15.1
2022-09-12T05:25:00.171Z,15.0
2022-09-12T05:30:00.196Z,15.0
2022-09-12T05:35:00.171Z,15.0
2022-09-12T05:40:00.270Z,15.0
2022-09-12T05:45:00.170Z,15.0
2022-09-12T05:50:00.178Z,14.9
2022-09-12T05:55:00.173Z,14.9
2022-09-12T06:00:00.192Z,14.9
2022-09-12T06:05:00.153Z,14.8
2022-09-12T06:10:00.177Z,14.8
2022-09-12T06:15:00.172Z,14.8
2022-09-12T06:20:00.197Z,14.9
2022-09-12T06:25:00.183Z,15.0
2022-09-12T06:30:00.172Z,15.0
2022-09-12T06:35:00.169Z,15.2
2022-09-12T06:40:00.303Z,15.3
2022-09-12T06:45:00.155Z,15.2
2022-09-12T06:50:00.197Z,15.2
2022-09-12T06:55:00.169Z,15.3
2022-09-12T07:00:00.179Z,15.2
2022-09-12T07:05:00.184Z,15.2
2022-09-12T07:10:00.180Z,15.4
2022-09-12T07:15:00.171Z,15.4
2022-09-12T07:20:00.245Z,15.6
2022-09-12T07:25:00.198Z,16.0
2022-09-12T07:30:00.172Z,16.5
2022-09-12T07:35:00.164Z,16.8
2022-09-12T07:40:00.406Z,17.4
2022-09-12T07:45:00.184Z,17.9
2022-09-12T07:50:00.174Z,18.6
2022-09-12T07:55:00.343Z,19.1
2022-09-12T08:00:00.161Z,19.7
2022-09-12T08:05:00.168Z,20.3
2022-09-12T08:10:00.219Z,20.9
2022-09-12T08:15:00.195Z,21.7
2022-09-12T08:20:00.169Z,22.0
2022-09-12T08:25:00.168Z,22.5
2022-09-12T08:30:00.198Z,23.0
2022-09-12T08:35:00.171Z,23.7
2022-09-12T08:40:00.257Z,24.1
2022-09-12T08:45:00.200Z,24.1
2022-09-12T08:50:00.188Z,24.1
2022-09-12T08:55:00.180Z,24.1
2022-09-12T09:00:00.161Z,24.1
2022-09-12T09:05:00.161Z,23.9
2022-09-12T09:10:00.222Z,23.6
2022-09-12T09:15:00.181Z,23.5
2022-09-12T09:20:00.184Z,23.8
2022-09-12T09:25:00.181Z,23.7
2022-09-12T09:30:00.190Z,23.5
2022-09-12T09:35:00.202Z,23.7
2022-09-12T09:40:00.269Z,23.8
2022-09-12T09:45:00.181Z,23.8
2022-09-12T09:50:00.183Z,23.8
2022-09-12T09:55:00.178Z,23.3
2022-09-12T10:00:00.196Z,23.3
2022-09-12T10:05:00.145Z,23.1
2022-09-12T10:10:00.175Z,23.2
2022-09-12T10:15:00.187Z,23.5
2022-09-12T10:20:20.039Z,23.6
2022-09-12T10:25:00.180Z,23.4
2022-09-12T10:30:00.273Z,23.2
2022-09-12T10:35:00.190Z,23.4
2022-09-12T10:40:00.271Z,23.0
2022-09-12T10:45:00.195Z,23.1
2022-09-12T10:50:00.185Z,23.3
2022-09-12T10:55:00.185Z,23.6
2022-09-12T11:00:00.206Z,23.7
2022-09-12T11:05:00.196Z,23.8
2022-09-12T11:10:00.164Z,23.5
2022-09-12T11:15:00.188Z,23.3
2022-09-12T11:20:00.200Z,23.2
2022-09-12T11:25:00.199Z,23.2
2022-09-12T11:30:00.206Z,23.4
2022-09-12T11:35:00.207Z,23.7
2022-09-12T11:40:00.278Z,23.9
2022-09-12T11:45:00.197Z,23.9
2022-09-12T11:50:00.179Z,23.8
2022-09-12T11:55:00.168Z,23.6
2022-09-12T12:00:00.233Z,23.7
2022-09-12T12:05:00.342Z,23.8
2022-09-12T12:10:00.171Z,23.8
2022-09-12T12:15:00.188Z,23.8
2022-09-12T12:20:05.605Z,24.0
2022-09-12T12:25:00.173Z,24.1
2022-09-12T12:30:00.308Z,24.0
2022-09-12T12:35:00.175Z,23.8
2022-09-12T12:40:00.375Z,24.0
2022-09-12T12:45:00.177Z,24.0
2022-09-12T12:50:00.294Z,24.0
2022-09-12T12:55:00.153Z,24.1
2022-09-12T13:00:00.376Z,24.1
2022-09-12T13:05:00.473Z,24.2
2022-09-12T13:10:00.184Z,24.1
2022-09-12T13:15:00.151Z,23.9
2022-09-12T13:20:23.716Z,24.0
2022-09-12T13:25:00.151Z,23.9
2022-09-12T13:30:00.206Z,24.1
2022-09-12T13:35:00.267Z,24.0
2022-09-12T13:40:00.328Z,23.9
2022-09-12T13:45:00.451Z,23.7
2022-09-12T13:50:00.270Z,23.5
2022-09-12T13:55:00.348Z,23.7
2022-09-12T14:00:00.203Z,23.6
2022-09-12T14:05:00.296Z,23.6
2022-09-12T14:10:00.171Z,23.6
2022-09-12T14:15:00.212Z,23.6
2022-09-12T14:20:00.209Z,23.6
2022-09-12T14:25:00.212Z,23.7
2022-09-12T14:30:00.174Z,23.9
2022-09-12T14:35:00.216Z,24.2
2022-09-12T14:40:00.272Z,24.2
2022-09-12T14:45:00.178Z,24.1
2022-09-12T14:50:00.207Z,23.7
2022-09-12T14:55:00.185Z,23.4
2022-09-12T15:00:00.190Z,23.2
2022-09-12T15:05:00.344Z,23.0
2022-09-12T15:10:00.149Z,22.9
2022-09-12T15:15:00.354Z,23.0
2022-09-12T15:20:00.199Z,23.0
2022-09-12T15:25:00.200Z,23.1
2022-09-12T15:30:00.260Z,23.2
2022-09-12T15:35:00.164Z,23.3
2022-09-12T15:40:00.347Z,23.4
2022-09-12T15:45:02.500Z,23.4
2022-09-12T15:50:00.340Z,23.3
2022-09-12T15:55:00.165Z,23.0
2022-09-12T16:00:00.203Z,23.2
2022-09-12T16:05:00.184Z,23.3
2022-09-12T16:10:00.250Z,23.3
2022-09-12T16:15:00.180Z,23.3
2022-09-12T16:20:00.184Z,23.3
2022-09-12T16:25:00.161Z,23.3
2022-09-12T16:30:00.187Z,23.3
2022-09-12T16:35:00.197Z,23.2
2022-09-12T16:40:00.313Z,23.1
2022-09-12T16:45:00.164Z,22.9
2022-09-12T16:50:00.445Z,22.9
2022-09-12T16:55:00.146Z,22.9
2022-09-12T17:00:00.220Z,22.9
2022-09-12T17:05:00.146Z,22.8
2022-09-12T17:10:00.201Z,22.7
2022-09-12T17:15:00.168Z,22.7
2022-09-12T17:20:00.191Z,22.6
2022-09-12T17:25:00.166Z,22.5
2022-09-12T17:30:00.373Z,22.5
2022-09-12T17:35:00.147Z,22.5
2022-09-12T17:40:00.291Z,22.2
2022-09-12T17:45:00.190Z,22.0
2022-09-12T17:50:27.478Z,21.8
2022-09-12T17:55:00.195Z,21.6
2022-09-12T18:00:00.183Z,21.5
2022-09-12T18:05:00.178Z,21.4
2022-09-12T18:10:00.191Z,21.3
2022-09-12T18:15:00.173Z,21.3
2022-09-12T18:20:00.176Z,21.2
2022-09-12T18:25:00.171Z,21.1
2022-09-12T18:30:20.065Z,20.9
2022-09-12T18:35:00.173Z,20.9
2022-09-12T18:40:00.389Z,20.8
2022-09-12T18:45:00.174Z,20.7
2022-09-12T18:50:00.179Z,20.7
2022-09-12T18:55:00.211Z,20.6
2022-09-12T19:00:00.181Z,20.5
2022-09-12T19:05:00.169Z,20.4
2022-09-12T19:10:00.191Z,20.3
2022-09-12T19:15:00.186Z,20.3
2022-09-12T19:20:00.205Z,20.3
2022-09-12T19:25:00.202Z,20.2
2022-09-12T19:30:00.192Z,20.2
2022-09-12T19:35:00.143Z,20.1
2022-09-12T19:40:00.267Z,20.0
2022-09-12T19:45:00.181Z,19.9
2022-09-12T19:50:00.205Z,19.8
2022-09-12T19:55:00.155Z,19.7
2022-09-12T20:00:00.201Z,19.6
2022-09-12T20:05:00.149Z,19.5
2022-09-12T20:10:00.236Z,19.4
2022-09-12T20:15:00.166Z,19.4
2022-09-12T20:20:00.189Z,19.3
2022-09-12T20:25:00.195Z,19.3
2022-09-12T20:30:00.194Z,19.3
2022-09-12T20:35:00.159Z,19.2
2022-09-12T20:40:00.296Z,19.2
2022-09-12T20:45:00.189Z,19.1
2022-09-12T20:50:00.169Z,19.0
2022-09-12T20:55:00.188Z,19.0
2022-09-12T21:00:00.184Z,18.9
2022-09-12T21:05:00.140Z,18.9
2022-09-12T21:10:00.203Z,18.8
2022-09-12T21:15:00.181Z,18.7
2022-09-12T21:20:00.196Z,18.7
2022-09-12T21:25:00.145Z,18.6
2022-09-12T21:30:00.188Z,18.5
2022-09-12T21:35:00.145Z,18.4
2022-09-12T21:40:00.335Z,18.4
2022-09-12T21:45:00.196Z,18.3
2022-09-12T21:50:00.225Z,18.3
2022-09-12T21:55:00.156Z,18.3
2022-09-12T22:00:00.206Z,18.3
2022-09-12T22:05:00.157Z,18.3
2022-09-12T22:10:00.184Z,18.3
2022-09-12T22:15:08.905Z,18.2
2022-09-12T22:20:00.160Z,18.2
2022-09-12T22:25:00.168Z,18.2
2022-09-12T22:30:00.209Z,18.2
2022-09-12T22:35:00.152Z,18.2
2022-09-12T22:40:00.307Z,18.2
2022-09-12T22:45:00.199Z,18.2
2022-09-12T22:50:00.197Z,18.2
2022-09-12T22:55:00.160Z,18.2
2022-09-12T23:00:00.165Z,18.3
2022-09-12T23:05:00.151Z,18.3
2022-09-12T23:10:00.210Z,18.3
2022-09-12T23:15:00.193Z,18.3
2022-09-12T23:20:00.157Z,18.3
2022-09-12T23:25:00.316Z,18.3
2022-09-12T23:30:00.180Z,18.4
2022-09-12T23:35:00.326Z,18.4
2022-09-12T23:40:00.207Z,18.4
2022-09-12T23:45:00.340Z,18.5
2022-09-12T23:50:00.166Z,18.5
2022-09-12T23:55:00.166Z,18.6
